• Join FlightAware (Why Join?)
  • Login
  • US Flag 
05:54PM EST


 

Airport Tracker/Info


-or-


 

Live Flight TrackerFlight Track Log ✈ UAL4846 ✈ 12-Apr-2013 ✈ KROC - KEWR

Flight Track Log - Related Links

Times and Time Zones

All times are in EDT time to prevent confusion due to time zone crossing. See the UAL4846 flight status page for this flight to view local times or setup timezone preferences in your user account.

Time Position Orientation Groundspeed Altitude Reporting Facility
EDT Latitude Longitude Course Direction KTS MPH feet Rate Location/Type
06:50AM 43.1239 -77.6761 124° Southeast 123 142 1,300  Level Cleveland Center
06:51AM 43.1400 -77.6497 50° Northeast 110 127 2,400 1,260 Climbing Cleveland Center
06:52AM 43.1286 -77.6106 112° Southeast 127 146 3,500 1,140 Climbing Cleveland Center
06:52AM 43.1194 -77.5825 114° Southeast 127 146 4,300 840 Climbing Cleveland Center
06:53AM 43.0975 -77.5353 122° Southeast 138 159 5,000 300 Climbing Cleveland Center
06:54AM 43.0644 -77.4714 125° Southeast 170 196 5,000  Level Cleveland Center
06:55AM 42.9171 -77.2176 124° Southeast  Level FlightAware Approximate
06:55AM 43.0247 -77.3939 125° Southeast 212 244 5,000  Level Cleveland Center
06:57AM 42.9561 -77.2503 123° Southeast 223 257 7,700 1,260 Climbing New York Center
06:58AM 42.9225 -77.1817 124° Southeast 218 251 8,800 1,140 Climbing New York Center
06:59AM 42.8883 -77.1161 125° Southeast 218 251 10,000 1,080 Climbing New York Center
07:00AM 42.8544 -77.0506 125° Southeast 218 251 11,100 1,020 Climbing New York Center
07:01AM 42.8222 -76.9881 125° Southeast 213 245 12,100 900 Climbing New York Center
07:02AM 42.7925 -76.9203 121° Southeast 213 245 12,900 360 Climbing New York Center
07:03AM 42.7592 -76.8408 120° Southeast 225 259 12,900  Level New York Center
07:04AM 42.7217 -76.7583 122° Southeast 236 272 13,000  Climbing New York Center
07:05AM 42.6917 -76.6978 124° Southeast 245 282 13,000  Level Boston Center
07:06AM 42.6553 -76.6133 120° Southeast 251 289 13,100  Climbing Boston Center
07:07AM 42.6164 -76.5317 123° Southeast 256 295 13,100  Level Boston Center
07:08AM 42.5819 -76.4503 120° Southeast 256 295 13,100  Level Boston Center
07:09AM 42.5453 -76.3661 121° Southeast 256 295 13,100  Level Boston Center
07:10AM 42.5064 -76.2819 122° Southeast 256 295 13,100  Level Boston Center
07:11AM 42.4656 -76.1894 121° Southeast 256 295 13,100  Level Boston Center
07:12AM 42.4267 -76.1056 122° Southeast 256 295 13,100  Level Boston Center
07:13AM 42.3875 -76.0244 123° Southeast 261 300 13,100  Level Boston Center
07:14AM 42.3486 -75.9378 121° Southeast 255 293 13,100  Level Boston Center
07:15AM 42.3114 -75.8572 122° Southeast 260 299 13,100  Level Boston Center
07:16AM 42.2783 -75.7825 121° Southeast 260 299 13,100  Level Boston Center
07:17AM 42.2411 -75.6992 121° Southeast 260 299 13,100  Level Boston Center
07:18AM 42.2017 -75.6158 123° Southeast 260 299 13,100  Level Boston Center
07:19AM 42.1606 -75.5239 121° Southeast 260 299 13,100  Level Boston Center
07:20AM 42.1269 -75.4494 121° Southeast 260 299 13,100  Level Boston Center
07:21AM 42.0875 -75.3636 122° Southeast 260 299 13,100  Level Boston Center
07:22AM 42.0500 -75.2808 121° Southeast 260 299 13,100 -120 Level Boston Center
07:23AM 42.0150 -75.1869 117° Southeast 260 299 12,900 -60 Descending Boston Center
07:24AM 41.9775 -75.0878 117° Southeast 271 312 13,000  Climbing Boston Center
07:25AM 41.9481 -75.0083 116° Southeast 271 312 13,000 -120 Level Boston Center
07:26AM 41.9086 -74.9089 118° Southeast 271 312 12,800 -660 Descending Boston Center
07:27AM 41.8753 -74.8211 117° Southeast 282 325 11,700 -1,200 Descending Boston Center
07:28AM 41.8336 -74.7108 117° Southeast 291 335 10,400 -1,320 Descending Boston Center
07:29AM 41.7900 -74.5953 117° Southeast 291 335 8,900 -1,200 Descending Boston Center
07:30AM 41.7350 -74.5378 142° Southeast 250 288 7,800 -1,020 Descending Boston Center
07:31AM 41.6681 -74.5467 186° South 232 267 6,900 -420 Descending Boston Center
07:32AM 41.6053 -74.5556 186° South 232 267 7,000  Climbing Boston Center
07:33AM 41.5447 -74.5675 188° South 232 267 7,000  Level Boston Center
07:34AM 41.4881 -74.5794 189° South 221 254 7,000  Level Boston Center
07:35AM 41.4381 -74.5889 188° South 197 227 7,000  Level Boston Center
07:36AM 41.3897 -74.5983 188° South 186 214 7,000  Level Boston Center
07:37AM 41.3478 -74.6164 198° South 165 190 7,000  Level Boston Center
07:38AM 41.3036 -74.6342 197° South 165 190 7,000  Level Boston Center
07:39AM 41.3028 -74.6783 269° West 119 137 7,000  Level Boston Center
07:40AM 41.3594 -74.6664 North 77 89 7,000 -60 Level Boston Center
07:41AM 41.4244 -74.6467 13° North 158 182 6,900  Descending Boston Center
07:42AM 41.4725 -74.6289 15° North 205 236 7,000  Climbing Boston Center
07:43AM 41.4611 -74.5814 108° East 77 89 6,900 -600 Descending Boston Center
07:44AM 41.4086 -74.5989 194° South 128 147 5,900 -540 Descending Boston Center
07:45AM 41.3667 -74.6142 195° South 171 197 5,900  Level Boston Center
07:46AM 41.3206 -74.6264 191° South 171 197 6,000  Climbing Boston Center
07:47AM 41.2867 -74.6444 202° Southwest 158 182 6,000  Level Boston Center
07:48AM 41.3319 -74.6767 332° Northwest 112 129 6,000  Level Boston Center
07:50AM 41.3833 -74.6000 48° Northeast 233 268 6,000  Level New York TRACON
07:51AM 41.3333 -74.6000 180° South 185 213 6,000  Level New York TRACON
07:52AM 41.2833 -74.6167 194° South 200 230 6,000  Level New York TRACON
07:53AM 41.2333 -74.6167 180° South 208 239 6,000  Level New York TRACON
07:54AM 41.1667 -74.6167 180° South 211 243 6,000  Level New York TRACON
07:55AM 41.1167 -74.6167 180° South 212 244 6,000  Level New York TRACON
07:56AM 41.0500 -74.6333 191° South 214 246 6,000  Level New York TRACON
07:56AM 41.0000 -74.6333 180° South 214 246 6,000  Level New York TRACON
07:57AM 40.9500 -74.6333 180° South 211 243 6,000  Level New York TRACON
07:58AM 40.8833 -74.6500 191° South 212 244 6,000  Level New York TRACON
07:59AM 40.8333 -74.6500 180° South 210 242 6,000  Level New York TRACON
08:00AM 40.7667 -74.6500 180° South 213 245 6,000  Level New York TRACON
08:01AM 40.7167 -74.6500 180° South 214 246 6,000  Level New York TRACON
08:02AM 40.6500 -74.6500 180° South 226 260 6,000  Level New York TRACON
08:03AM 40.6000 -74.5833 135° Southeast 231 266 6,000 -120 Level New York TRACON
08:04AM 40.5500 -74.5167 135° Southeast 228 262 5,800 -720 Descending New York TRACON
08:05AM 40.5167 -74.4667 131° Southeast 194 223 4,600 -900 Descending New York TRACON
08:06AM 40.4833 -74.4333 143° Southeast 172 198 4,000 -300 Descending New York TRACON
08:07AM 40.4500 -74.4000 143° Southeast 166 191 4,000  Level New York TRACON
08:08AM 40.4167 -74.3500 131° Southeast 175 201 4,000 -540 Level New York TRACON
08:09AM 40.4500 -74.3167 37° Northeast 233 268 3,000 -540 Descending New York TRACON
08:10AM 40.5000 -74.2833 27° Northeast 167 192 3,000  Level New York TRACON
08:11AM 40.5333 -74.2667 21° North 181 208 3,100 60 Climbing New York TRACON